Time;durP1;ratioP1;P1;durP2;ratioP2;P2;SDS_P1;SDS_P2;PMS_P1;PMS_P2;Temp;Humidity;BMP_temperature;BMP_pressure;BME280_temperature;BME280_humidity;BME280_pressure;Samples;Min_cycle;Max_cycle;Signal;HPM_P1;HPM_P2
2021/01/30 00:00:21;;;;;;;35.63;19.70;;;;;;;3.83;100.00;98590.41;4978800;28;20200;-37
2021/01/30 00:03:09;;;;;;;38.43;22.97;;;;;;;3.27;100.00;98590.00;4978742;28;20199;-34
2021/01/30 00:05:57;;;;;;;35.83;20.57;;;;;;;3.51;100.00;98603.47;4977698;28;20647;-37
2021/01/30 00:08:44;;;;;;;42.90;23.43;;;;;;;3.66;100.00;98603.34;4978343;28;20494;-35
2021/01/30 00:11:30;;;;;;;37.03;22.90;;;;;;;3.51;100.00;98606.03;4977413;28;20247;-34
2021/01/30 00:14:21;;;;;;;39.03;23.33;;;;;;;3.32;100.00;98625.75;4978143;28;20546;-35
2021/01/30 00:17:08;;;;;;;37.13;22.40;;;;;;;3.47;100.00;98628.19;4978343;28;20235;-35
2021/01/30 00:19:54;;;;;;;41.40;25.27;;;;;;;2.99;100.00;98631.91;4978060;28;20204;-36
2021/01/30 00:22:41;;;;;;;39.80;24.67;;;;;;;2.82;100.00;98629.41;4978260;28;20207;-33
2021/01/30 00:25:30;;;;;;;39.97;22.60;;;;;;;2.70;100.00;98647.34;4978287;28;20637;-38
2021/01/30 00:28:17;;;;;;;44.20;25.37;;;;;;;2.41;100.00;98652.53;4978093;28;20629;-35
2021/01/30 00:31:03;;;;;;;44.10;24.87;;;;;;;2.75;100.00;98653.28;4977657;28;20353;-34
2021/01/30 00:33:50;;;;;;;40.93;24.93;;;;;;;2.40;100.00;98656.78;4978234;28;20602;-33
2021/01/30 00:36:36;;;;;;;46.00;25.07;;;;;;;2.47;100.00;98662.72;4977352;28;20593;-35
2021/01/30 00:39:23;;;;;;;56.37;30.13;;;;;;;2.27;100.00;98669.56;4977092;28;20207;-33
2021/01/30 00:42:11;;;;;;;65.43;35.50;;;;;;;2.09;100.00;98675.53;4977785;28;20203;-34
2021/01/30 00:44:59;;;;;;;66.53;33.17;;;;;;;2.48;100.00;98678.88;4977635;28;20262;-33
2021/01/30 00:47:45;;;;;;;65.50;31.30;;;;;;;2.41;100.00;98690.78;4977993;28;20334;-35
2021/01/30 00:50:31;;;;;;;74.17;39.83;;;;;;;2.05;100.00;98689.13;4977935;28;20207;-35
2021/01/30 00:53:18;;;;;;;74.77;35.17;;;;;;;2.21;100.00;98703.56;4977699;28;20301;-38
2021/01/30 00:56:04;;;;;;;79.90;38.67;;;;;;;2.40;100.00;98709.50;4977497;28;20234;-37
2021/01/30 00:58:51;;;;;;;85.90;40.87;;;;;;;2.24;100.00;98710.38;4978603;28;20311;-35
2021/01/30 01:01:39;;;;;;;85.23;41.17;;;;;;;2.20;100.00;98714.63;4981333;28;20416;-36
2021/01/30 01:04:26;;;;;;;97.23;46.40;;;;;;;2.08;100.00;98722.28;4981369;28;20207;-36
2021/01/30 01:07:13;;;;;;;92.23;42.50;;;;;;;1.93;100.00;98712.09;4981282;28;20618;-36
2021/01/30 01:10:01;;;;;;;91.83;47.60;;;;;;;1.59;100.00;98722.28;4980972;28;20235;-37
2021/01/30 01:12:46;;;;;;;82.30;40.73;;;;;;;1.71;100.00;98740.13;4981495;28;20207;-36
2021/01/30 01:15:33;;;;;;;91.47;41.97;;;;;;;1.85;100.00;98746.91;4981893;28;20207;-38
2021/01/30 01:18:20;;;;;;;85.43;41.80;;;;;;;1.75;100.00;98746.06;4981303;28;20199;-35
2021/01/30 01:21:06;;;;;;;90.80;42.90;;;;;;;1.56;100.00;98747.75;4981231;28;20207;-35
2021/01/30 01:23:52;;;;;;;86.77;44.37;;;;;;;1.68;100.00;98755.41;4981199;28;20211;-39
2021/01/30 01:26:38;;;;;;;82.97;40.33;;;;;;;1.41;100.00;98760.41;4981417;28;20296;-38
2021/01/30 01:29:26;;;;;;;82.70;41.87;;;;;;;1.46;100.00;98771.47;4981388;28;20204;-36
2021/01/30 01:32:12;;;;;;;77.40;40.57;;;;;;;1.46;100.00;98780.81;4981059;28;20215;-35
2021/01/30 01:34:59;;;;;;;75.20;38.37;;;;;;;1.36;100.00;98774.84;4980976;28;20194;-36
2021/01/30 01:37:50;;;;;;;82.87;38.80;;;;;;;1.33;100.00;98777.38;4981215;28;20198;-35
2021/01/30 01:40:39;;;;;;;88.57;39.50;;;;;;;1.37;100.00;98777.41;4980707;28;20343;-34
2021/01/30 01:43:26;;;;;;;78.00;38.27;;;;;;;1.35;100.00;98778.22;4980948;28;20195;-35
2021/01/30 01:46:27;;;;;;;87.97;40.07;;;;;;;1.65;100.00;98773.22;4980631;28;20235;-34
2021/01/30 01:49:16;;;;;;;87.33;40.70;;;;;;;1.49;100.00;98791.00;4981015;28;20198;-36
2021/01/30 01:52:10;;;;;;;90.17;42.23;;;;;;;1.26;100.00;98790.91;4980683;28;20208;-37
2021/01/30 01:55:09;;;;;;;86.73;44.30;;;;;;;1.37;100.00;98804.56;4981011;28;20203;-36
2021/01/30 01:57:59;;;;;;;98.47;45.13;;;;;;;1.17;100.00;98814.66;4980629;28;20229;-36
2021/01/30 02:00:47;;;;;;;92.00;43.27;;;;;;;1.08;100.00;98817.16;4980718;28;20254;-36
2021/01/30 02:03:33;;;;;;;97.73;44.67;;;;;;;1.41;100.00;98811.34;4980215;28;20219;-37
2021/01/30 02:06:20;;;;;;;101.37;48.40;;;;;;;1.15;100.00;98808.72;4979518;28;20223;-35
2021/01/30 02:09:12;;;;;;;104.47;47.53;;;;;;;1.42;100.00;98825.78;4979991;28;20506;-36
2021/01/30 02:12:04;;;;;;;94.90;44.90;;;;;;;1.43;100.00;98829.19;4980279;28;20208;-36
2021/01/30 02:14:53;;;;;;;87.33;41.47;;;;;;;1.37;100.00;98840.22;4980483;28;20459;-34
2021/01/30 02:17:47;;;;;;;74.40;38.17;;;;;;;1.19;100.00;98835.91;4980213;28;20199;-34
2021/01/30 02:21:35;;;;;;;82.30;40.50;;;;;;;1.39;100.00;98846.19;4980210;28;20274;-35
2021/01/30 02:24:58;;;;;;;64.73;35.73;;;;;;;1.06;100.00;98848.53;4980330;28;20203;-35
2021/01/30 02:28:00;;;;;;;62.57;34.03;;;;;;;1.27;100.00;98852.03;4980378;28;20227;-36
2021/01/30 02:31:16;;;;;;;65.63;36.40;;;;;;;1.39;100.00;98853.81;4980224;28;20450;-36
2021/01/30 02:34:31;;;;;;;60.33;33.40;;;;;;;1.12;100.00;98848.56;4980112;28;20945;-38
2021/01/30 02:37:22;;;;;;;62.80;33.30;;;;;;;1.48;100.00;98850.44;4980196;28;20203;-34
2021/01/30 02:40:12;;;;;;;56.03;31.30;;;;;;;1.24;100.00;98846.94;4979694;28;20222;-39
2021/01/30 02:43:04;;;;;;;53.60;30.20;;;;;;;1.38;100.00;98852.13;4979930;28;20451;-36
2021/01/30 02:45:56;;;;;;;52.87;29.93;;;;;;;1.29;100.00;98857.16;4979581;28;20563;-39
2021/01/30 02:48:48;;;;;;;50.37;28.67;;;;;;;1.62;100.00;98851.34;4979828;28;20526;-37
2021/01/30 02:51:38;;;;;;;54.30;31.67;;;;;;;1.63;100.00;98855.59;4979801;28;20203;-35
2021/01/30 02:54:25;;;;;;;48.80;28.53;;;;;;;1.50;100.00;98859.81;4979857;28;20591;-36
2021/01/30 02:57:13;;;;;;;45.57;28.73;;;;;;;1.56;100.00;98859.84;4979262;28;20195;-37
2021/01/30 03:00:02;;;;;;;46.97;27.63;;;;;;;1.56;100.00;98867.50;4979200;28;20790;-39
2021/01/30 03:02:47;;;;;;;42.40;27.37;;;;;;;1.47;100.00;98869.97;4979503;28;20510;-37
2021/01/30 03:05:34;;;;;;;44.37;26.17;;;;;;;1.30;100.00;98869.91;4979025;28;20461;-33
2021/01/30 03:08:33;;;;;;;40.73;25.63;;;;;;;1.31;100.00;98879.25;4977916;28;20318;-35
2021/01/30 03:11:27;;;;;;;37.97;24.83;;;;;;;1.56;100.00;98882.78;4979050;28;20249;-38
2021/01/30 03:14:17;;;;;;;34.20;23.20;;;;;;;1.40;100.00;98886.06;4979532;28;20203;-38
2021/01/30 03:17:04;;;;;;;36.77;24.63;;;;;;;1.38;100.00;98886.09;4979652;28;20447;-33
2021/01/30 03:19:53;;;;;;;29.77;22.10;;;;;;;1.24;100.00;98889.38;4979803;28;20199;-35
2021/01/30 03:22:41;;;;;;;29.37;21.17;;;;;;;1.35;100.00;98903.88;4978047;28;20202;-39
2021/01/30 03:25:29;;;;;;;27.20;19.97;;;;;;;1.04;100.00;98904.53;4978567;28;20203;-37
2021/01/30 03:28:16;;;;;;;29.47;20.37;;;;;;;1.21;100.00;98904.63;4978959;28;20207;-38
2021/01/30 03:31:02;;;;;;;21.57;16.30;;;;;;;0.90;100.00;98901.03;4979210;28;20546;-35
2021/01/30 03:33:49;;;;;;;20.07;15.10;;;;;;;1.00;100.00;98913.81;4979143;28;20606;-39
2021/01/30 03:36:35;;;;;;;20.97;14.13;;;;;;;1.17;100.00;98921.59;4979118;28;20513;-40
2021/01/30 03:39:21;;;;;;;17.90;14.30;;;;;;;1.18;100.00;98928.41;4979011;28;20454;-38
2021/01/30 03:42:07;;;;;;;19.17;14.67;;;;;;;1.36;100.00;98936.16;4978724;28;20450;-39
2021/01/30 03:44:54;;;;;;;24.13;14.77;;;;;;;1.16;100.00;98936.88;4978941;28;20633;-36
2021/01/30 03:47:40;;;;;;;13.47;11.60;;;;;;;1.07;100.00;98936.78;4978755;28;20589;-39
2021/01/30 03:50:27;;;;;;;20.17;12.70;;;;;;;1.07;100.00;98944.44;4978544;28;20450;-39
2021/01/30 03:53:13;;;;;;;25.27;13.37;;;;;;;1.52;100.00;98954.94;4978981;28;20521;-39
2021/01/30 03:55:58;;;;;;;12.87;10.83;;;;;;;1.25;100.00;98957.28;4978575;28;20202;-39
2021/01/30 03:58:45;;;;;;;11.87;10.67;;;;;;;1.35;100.00;98943.78;4978795;28;20589;-37
2021/01/30 04:01:33;;;;;;;12.73;10.83;;;;;;;0.97;100.00;98940.97;4978757;28;20446;-36
2021/01/30 04:04:24;;;;;;;13.07;11.57;;;;;;;0.96;100.00;98947.75;4978312;28;20494;-38
2021/01/30 04:07:10;;;;;;;15.97;11.93;;;;;;;1.18;100.00;98950.47;4977786;28;20318;-35
2021/01/30 04:09:56;;;;;;;12.93;11.63;;;;;;;1.06;100.00;98947.81;4978332;28;20645;-39
2021/01/30 04:12:42;;;;;;;12.70;11.30;;;;;;;1.14;100.00;98957.22;4978382;28;20864;-36
2021/01/30 04:15:30;;;;;;;11.80;10.50;;;;;;;1.26;100.00;98959.84;4978495;28;20202;-37
2021/01/30 04:18:17;;;;;;;13.43;12.03;;;;;;;1.09;100.00;98958.88;4978372;28;20443;-35
2021/01/30 04:21:04;;;;;;;12.93;11.37;;;;;;;1.46;100.00;98951.50;4978077;28;20222;-38
2021/01/30 04:23:50;;;;;;;12.60;10.57;;;;;;;1.04;100.00;98958.84;4978417;28;20202;-36
2021/01/30 04:26:36;;;;;;;13.00;10.83;;;;;;;0.89;100.00;98965.50;4977787;28;20486;-35
2021/01/30 04:29:22;;;;;;;12.47;10.90;;;;;;;1.15;100.00;98974.22;4977836;28;20207;-35
2021/01/30 04:32:09;;;;;;;12.13;10.83;;;;;;;1.09;100.00;98970.75;4978115;28;20510;-34
2021/01/30 04:34:56;;;;;;;12.13;10.83;;;;;;;1.06;100.00;98973.28;4977481;28;20442;-34
2021/01/30 04:37:42;;;;;;;11.17;9.80;;;;;;;1.14;100.00;98977.59;4978254;28;20203;-37
2021/01/30 04:40:32;;;;;;;12.67;10.60;;;;;;;1.13;100.00;98972.50;4978381;28;20451;-39
2021/01/30 04:43:26;;;;;;;11.47;9.70;;;;;;;1.21;100.00;98974.22;4977747;28;20202;-34
2021/01/30 04:46:20;;;;;;;13.17;11.30;;;;;;;1.12;100.00;98979.28;4978101;28;20378;-37
2021/01/30 04:49:16;;;;;;;13.47;11.10;;;;;;;1.28;100.00;98983.63;4977742;28;20203;-35
2021/01/30 04:52:11;;;;;;;12.13;10.33;;;;;;;1.59;100.00;98979.63;4977733;28;20742;-36
2021/01/30 04:55:08;;;;;;;12.93;11.23;;;;;;;1.16;100.00;98985.25;4977859;28;20206;-38
2021/01/30 04:58:08;;;;;;;12.80;11.17;;;;;;;1.17;100.00;98984.41;4976936;28;20203;-36
2021/01/30 05:01:12;;;;;;;13.03;11.63;;;;;;;1.22;100.00;98986.13;4977272;28;20215;-35
2021/01/30 05:04:05;;;;;;;15.23;13.23;;;;;;;1.10;100.00;98985.19;4977920;28;20713;-38
2021/01/30 05:07:02;;;;;;;13.20;11.07;;;;;;;1.27;100.00;98989.56;4976936;28;20693;-35
2021/01/30 05:09:54;;;;;;;16.57;12.80;;;;;;;1.45;100.00;98998.19;4977394;28;20249;-35
2021/01/30 05:12:47;;;;;;;16.40;13.40;;;;;;;1.06;100.00;98986.00;4977140;28;20342;-36
2021/01/30 05:15:39;;;;;;;15.93;13.53;;;;;;;1.17;100.00;98999.69;4978186;28;20710;-35
2021/01/30 05:18:29;;;;;;;16.87;13.40;;;;;;;1.16;100.00;99006.47;4977685;28;20473;-37
2021/01/30 05:21:21;;;;;;;16.37;14.30;;;;;;;1.37;100.00;98995.59;4977840;28;20495;-36
2021/01/30 05:24:10;;;;;;;17.10;13.67;;;;;;;1.22;100.00;99001.41;4976783;28;20447;-38
2021/01/30 05:27:18;;;;;;;15.97;14.23;;;;;;;1.46;100.00;99010.94;4976756;28;20503;-37
2021/01/30 05:30:11;;;;;;;17.77;14.73;;;;;;;1.21;100.00;99004.78;4977125;28;20202;-35
2021/01/30 05:33:08;;;;;;;17.63;15.63;;;;;;;1.31;100.00;98998.94;4977247;28;20251;-35
2021/01/30 05:36:00;;;;;;;18.33;13.80;;;;;;;1.07;100.00;98993.66;4976954;28;20462;-37
2021/01/30 05:38:59;;;;;;;17.57;14.80;;;;;;;1.20;100.00;99002.25;4976782;28;20206;-35
2021/01/30 05:41:59;;;;;;;20.47;15.63;;;;;;;1.45;100.00;99003.28;4976606;28;20207;-34
2021/01/30 05:44:50;;;;;;;19.33;15.67;;;;;;;1.52;100.00;99002.50;4977887;28;20267;-36
2021/01/30 05:47:37;;;;;;;17.93;14.67;;;;;;;0.89;100.00;99003.69;4980540;28;20481;-36
2021/01/30 05:50:32;;;;;;;17.17;13.30;;;;;;;1.02;100.00;99008.88;4980847;28;20206;-37
2021/01/30 05:53:22;;;;;;;19.87;16.07;;;;;;;1.29;100.00;99013.38;4980835;28;20542;-36
2021/01/30 05:56:08;;;;;;;18.77;15.10;;;;;;;1.21;100.00;99009.88;4980644;28;20593;-36
2021/01/30 05:58:54;;;;;;;18.50;15.73;;;;;;;1.13;100.00;99010.69;4980178;28;20450;-33
2021/01/30 06:01:40;;;;;;;19.53;16.07;;;;;;;1.21;100.00;99009.88;4980550;28;20447;-34
2021/01/30 06:04:28;;;;;;;20.10;15.47;;;;;;;1.13;100.00;99015.78;4980754;28;20203;-33
2021/01/30 06:07:38;;;;;;;20.07;15.43;;;;;;;1.01;100.00;99017.34;4980035;28;20573;-36
2021/01/30 06:10:28;;;;;;;20.47;16.03;;;;;;;1.38;100.00;99015.13;4971916;28;20239;-36
2021/01/30 06:13:19;;;;;;;22.30;17.40;;;;;;;1.03;100.00;99008.03;4980395;28;20450;-35
2021/01/30 06:16:04;;;;;;;22.50;16.57;;;;;;;1.18;100.00;99006.50;4980267;28;20869;-34
2021/01/30 06:18:51;;;;;;;20.50;15.47;;;;;;;1.26;100.00;99022.66;4980775;28;20746;-34
2021/01/30 06:21:37;;;;;;;22.07;16.20;;;;;;;1.07;100.00;99018.25;4979789;28;20287;-39
2021/01/30 06:24:28;;;;;;;23.93;16.37;;;;;;;1.06;100.00;99011.47;4980625;28;20203;-37
2021/01/30 06:27:26;;;;;;;23.43;18.37;;;;;;;1.24;100.00;99006.50;4980299;28;20230;-36
2021/01/30 06:30:25;;;;;;;19.73;15.80;;;;;;;0.80;100.00;99017.16;4980042;28;20222;-35
2021/01/30 06:33:23;;;;;;;19.27;16.57;;;;;;;0.74;100.00;99024.75;4979875;28;20249;-37
2021/01/30 06:36:14;;;;;;;19.93;15.37;;;;;;;0.97;100.00;99036.00;4979911;28;20272;-36
2021/01/30 06:39:09;;;;;;;18.23;14.40;;;;;;;1.07;100.00;99031.00;4979661;28;20550;-36
2021/01/30 06:41:57;;;;;;;19.83;15.20;;;;;;;0.88;100.00;99030.81;4980108;28;20203;-36
2021/01/30 06:44:43;;;;;;;18.87;15.70;;;;;;;0.75;100.00;99026.47;4980188;28;20400;-38
2021/01/30 06:47:30;;;;;;;19.13;15.37;;;;;;;0.92;100.00;99030.00;4980075;28;20509;-40
2021/01/30 06:50:23;;;;;;;19.43;15.23;;;;;;;0.92;100.00;99024.94;4979722;28;20451;-39
2021/01/30 06:53:17;;;;;;;16.63;13.13;;;;;;;0.98;100.00;99035.19;4980013;28;20351;-36
2021/01/30 06:56:13;;;;;;;19.60;15.23;;;;;;;0.97;100.00;99041.09;4978505;28;20202;-38
2021/01/30 06:59:04;;;;;;;19.47;14.93;;;;;;;0.84;100.00;99039.25;4979427;28;20450;-35
2021/01/30 07:01:50;;;;;;;16.90;13.57;;;;;;;0.80;100.00;99037.50;4978601;28;20917;-35
2021/01/30 07:05:09;;;;;;;19.47;14.07;;;;;;;0.86;100.00;99050.31;4979536;28;20207;-35
2021/01/30 07:08:20;;;;;;;16.50;12.80;;;;;;;0.65;100.00;99053.47;4979013;28;20235;-35
2021/01/30 07:11:30;;;;;;;17.80;13.30;;;;;;;0.60;100.00;99054.28;4978837;28;20314;-37
2021/01/30 07:14:37;;;;;;;17.67;14.00;;;;;;;0.92;100.00;99058.00;4979222;28;20203;-34
2021/01/30 07:17:50;;;;;;;19.63;14.20;;;;;;;1.06;100.00;99070.00;4979224;28;20462;-35
2021/01/30 07:20:47;;;;;;;15.50;12.90;;;;;;;0.91;100.00;99066.50;4978660;28;20285;-34
2021/01/30 07:23:42;;;;;;;16.73;12.80;;;;;;;1.01;100.00;99057.22;4979152;28;20605;-34
2021/01/30 07:26:34;;;;;;;18.33;14.67;;;;;;;1.09;100.00;99064.97;4978418;28;20211;-34
2021/01/30 07:29:51;;;;;;;18.07;13.33;;;;;;;0.75;100.00;99072.25;4979360;28;20450;-38
2021/01/30 07:32:41;;;;;;;16.70;12.83;;;;;;;0.71;100.00;99072.19;4978755;28;20212;-37
2021/01/30 07:35:32;;;;;;;16.83;12.83;;;;;;;0.65;100.00;99080.63;4978846;28;20202;-38
2021/01/30 07:38:24;;;;;;;16.13;13.00;;;;;;;0.73;100.00;99073.06;4978640;28;20447;-36
2021/01/30 07:41:21;;;;;;;16.93;12.83;;;;;;;0.89;100.00;99069.84;4978610;28;20207;-34
2021/01/30 07:44:14;;;;;;;20.50;14.67;;;;;;;0.99;100.00;99076.75;4961205;28;20220;-34
2021/01/30 07:47:16;;;;;;;17.43;13.27;;;;;;;1.26;100.00;99069.38;4959211;29;20228;-37
2021/01/30 07:50:05;;;;;;;20.53;15.03;;;;;;;0.92;100.00;99074.97;4959172;29;20313;-38
2021/01/30 07:53:01;;;;;;;21.67;14.10;;;;;;;0.75;100.00;99079.91;4959401;29;20598;-37
2021/01/30 07:56:03;;;;;;;19.20;13.77;;;;;;;0.96;100.00;99074.19;4958737;29;20203;-37
2021/01/30 07:59:09;;;;;;;18.47;14.37;;;;;;;1.10;100.00;99076.84;4958530;29;20203;-37
2021/01/30 08:02:33;;;;;;;21.90;15.37;;;;;;;0.98;100.00;99077.59;4958460;29;20198;-37
2021/01/30 08:05:35;;;;;;;21.13;14.73;;;;;;;1.20;100.00;99086.31;4959286;29;20626;-38
2021/01/30 08:08:27;;;;;;;19.93;15.07;;;;;;;1.06;100.00;99075.09;4958379;28;20614;-40
2021/01/30 08:11:22;;;;;;;21.23;15.90;;;;;;;1.03;100.00;99069.16;4958631;29;20247;-38
2021/01/30 08:14:38;;;;;;;19.07;13.23;;;;;;;0.66;100.00;99078.09;4959177;29;20452;-37
2021/01/30 08:17:41;;;;;;;20.97;14.03;;;;;;;0.74;100.00;99079.88;4958286;29;20192;-37
2021/01/30 08:20:38;;;;;;;20.23;15.07;;;;;;;1.09;100.00;99070.91;4958868;29;20598;-37
2021/01/30 08:23:37;;;;;;;20.57;15.03;;;;;;;1.14;100.00;99063.31;4958751;29;20208;-36
2021/01/30 08:26:29;;;;;;;20.20;15.13;;;;;;;1.07;100.00;99066.63;4958570;29;20505;-36
2021/01/30 08:29:19;;;;;;;19.30;13.67;;;;;;;1.02;100.00;99064.88;4958197;29;20552;-40
2021/01/30 08:32:32;;;;;;;18.73;12.73;;;;;;;0.69;100.00;99069.63;4958637;29;20506;-33
2021/01/30 08:35:56;;;;;;;19.20;13.73;;;;;;;0.91;100.00;99074.13;4957691;29;20259;-36
2021/01/30 08:38:42;;;;;;;18.80;12.97;;;;;;;0.90;100.00;99081.75;4957778;29;20298;-36
2021/01/30 08:41:44;;;;;;;19.07;13.40;;;;;;;0.76;100.00;99085.84;4958194;29;20236;-36
2021/01/30 08:44:39;;;;;;;20.50;14.03;;;;;;;0.95;100.00;99068.22;4958462;29;20203;-37
2021/01/30 08:47:27;;;;;;;20.00;13.00;;;;;;;0.62;100.00;99078.88;4958451;29;20554;-36
2021/01/30 08:50:35;;;;;;;20.87;12.97;;;;;;;0.71;100.00;99072.19;4957040;29;20204;-35
2021/01/30 08:53:31;;;;;;;17.63;12.47;;;;;;;0.90;100.00;99069.88;4957971;29;20203;-38
2021/01/30 08:56:46;;;;;;;17.23;12.93;;;;;;;1.22;100.00;99054.88;4958201;29;20617;-35
2021/01/30 08:59:47;;;;;;;16.10;10.97;;;;;;;0.81;100.00;99066.34;4957865;29;20203;-36
2021/01/30 09:02:53;;;;;;;12.97;10.03;;;;;;;0.90;100.00;99058.84;4957818;29;20223;-35
2021/01/30 09:05:43;;;;;;;16.53;10.23;;;;;;;0.96;100.00;99062.31;4957946;29;20199;-34
2021/01/30 09:09:01;;;;;;;15.53;11.63;;;;;;;1.27;100.00;99052.38;4957896;29;20232;-35
2021/01/30 09:11:47;;;;;;;15.60;10.80;;;;;;;1.24;100.00;99044.72;4957328;29;20247;-35
2021/01/30 09:14:39;;;;;;;15.27;10.67;;;;;;;1.64;100.00;99040.78;4958080;29;20422;-35
2021/01/30 09:17:49;;;;;;;17.13;12.23;;;;;;;1.69;100.00;99045.06;4966912;28;20273;-37
2021/01/30 09:20:56;;;;;;;14.43;11.43;;;;;;;1.52;100.00;99041.56;4966295;28;20206;-34
2021/01/30 09:23:51;;;;;;;15.23;10.37;;;;;;;1.20;100.00;99051.47;4962410;29;20299;-36
2021/01/30 09:26:51;;;;;;;14.90;10.33;;;;;;;1.29;100.00;99061.75;4961618;29;20204;-37
2021/01/30 09:29:39;;;;;;;15.73;11.07;;;;;;;1.17;100.00;99060.81;4961677;29;20207;-36
2021/01/30 09:32:30;;;;;;;14.33;10.90;;;;;;;1.38;100.00;99058.44;4975074;28;20201;-36
2021/01/30 09:35:26;;;;;;;18.57;13.50;;;;;;;1.31;100.00;99056.69;4981302;28;20203;-38
2021/01/30 09:38:26;;;;;;;15.13;11.20;;;;;;;1.36;100.00;99063.53;4980824;28;20199;-36
2021/01/30 09:41:20;;;;;;;17.50;12.17;;;;;;;1.47;100.00;99055.94;4980287;28;20211;-38
2021/01/30 09:44:10;;;;;;;18.00;12.30;;;;;;;1.41;100.00;99063.53;4980903;28;20613;-35
2021/01/30 09:47:01;;;;;;;16.87;11.90;;;;;;;1.51;100.00;99065.34;4980579;28;20664;-38
2021/01/30 09:49:55;;;;;;;16.50;12.10;;;;;;;1.76;100.00;99066.38;4980953;28;20203;-36
2021/01/30 09:52:50;;;;;;;17.43;11.70;;;;;;;1.45;100.00;99067.81;4980167;28;20207;-38
2021/01/30 09:55:38;;;;;;;16.17;11.27;;;;;;;1.44;100.00;99072.91;4980434;28;20350;-37
2021/01/30 09:58:27;;;;;;;15.77;10.90;;;;;;;1.49;100.00;99066.16;4980271;28;20289;-39
2021/01/30 10:01:23;;;;;;;15.33;11.27;;;;;;;1.35;100.00;99068.59;4979753;28;20471;-36
2021/01/30 10:04:21;;;;;;;15.37;11.43;;;;;;;1.55;100.00;99061.97;4979622;28;20211;-39
2021/01/30 10:07:11;;;;;;;17.47;12.93;;;;;;;1.87;100.00;99072.38;4979561;28;20351;-36
2021/01/30 10:09:56;;;;;;;18.87;14.17;;;;;;;1.72;100.00;99078.25;4979638;28;20576;-39
2021/01/30 10:12:43;;;;;;;17.87;12.20;;;;;;;1.63;100.00;99070.50;4979519;28;20210;-39
2021/01/30 10:15:32;;;;;;;15.77;12.87;;;;;;;1.70;100.00;99067.19;4980330;28;20207;-36
2021/01/30 10:18:22;;;;;;;15.23;11.17;;;;;;;1.57;100.00;99057.75;4978243;28;20261;-38
2021/01/30 10:21:29;;;;;;;23.70;14.27;;;;;;;1.62;100.00;99055.22;4979533;28;20267;-38
2021/01/30 10:24:20;;;;;;;29.33;15.60;;;;;;;1.75;100.00;99056.16;4980547;28;20219;-40
2021/01/30 10:27:14;;;;;;;18.40;12.50;;;;;;;1.83;100.00;99052.81;4979863;28;20227;-39
2021/01/30 10:30:01;;;;;;;16.40;10.07;;;;;;;1.52;100.00;99056.84;4979404;28;20712;-38
2021/01/30 10:32:51;;;;;;;16.90;10.90;;;;;;;1.44;100.00;99055.06;4979778;28;20472;-40
2021/01/30 10:35:46;;;;;;;13.30;9.50;;;;;;;1.51;100.00;99044.09;4979427;28;20274;-35
2021/01/30 10:38:39;;;;;;;12.60;9.03;;;;;;;1.61;100.00;99045.84;4979126;28;20294;-40
2021/01/30 10:41:29;;;;;;;14.13;9.50;;;;;;;1.53;100.00;99034.78;4965550;28;20480;-38
2021/01/30 10:44:26;;;;;;;14.90;10.73;;;;;;;1.91;100.00;99045.22;4979419;28;20223;-37
2021/01/30 10:47:14;;;;;;;13.17;10.17;;;;;;;2.04;100.00;99039.34;4979258;28;20270;-40
2021/01/30 10:50:13;;;;;;;13.13;9.70;;;;;;;1.90;100.00;99038.41;4974109;28;20303;-37
2021/01/30 10:53:25;;;;;;;11.20;9.07;;;;;;;2.11;100.00;99037.69;4959508;29;20483;-38
2021/01/30 10:56:21;;;;;;;11.90;9.20;;;;;;;1.79;100.00;99040.91;4959758;29;20203;-37
2021/01/30 10:59:22;;;;;;;10.37;7.80;;;;;;;1.70;100.00;99043.38;4959590;29;20195;-39
2021/01/30 11:02:21;;;;;;;11.50;7.73;;;;;;;2.03;100.00;99033.38;4959591;29;20203;-39
2021/01/30 11:05:23;;;;;;;12.00;8.47;;;;;;;1.77;100.00;99029.84;4959128;29;20199;-38
2021/01/30 11:08:10;;;;;;;10.07;7.23;;;;;;;1.71;100.00;99028.09;4959139;29;20219;-34
2021/01/30 11:11:04;;;;;;;9.53;7.47;;;;;;;1.86;100.00;99027.34;4958634;29;20351;-37
2021/01/30 11:13:50;;;;;;;9.83;6.87;;;;;;;1.61;100.00;99028.88;4959431;29;20208;-33
2021/01/30 11:16:39;;;;;;;8.73;6.67;;;;;;;1.79;100.00;99028.16;4959789;29;20321;-40
2021/01/30 11:19:38;;;;;;;10.77;8.80;;;;;;;2.27;100.00;99021.59;4959411;29;20215;-37
2021/01/30 11:22:26;;;;;;;11.87;8.77;;;;;;;2.24;100.00;99024.97;4959189;29;20305;-36
2021/01/30 11:25:14;;;;;;;12.33;9.07;;;;;;;2.34;100.00;99008.88;4958728;29;20204;-35
2021/01/30 11:28:00;;;;;;;13.73;8.93;;;;;;;2.05;100.00;99006.19;4958541;29;20375;-40
2021/01/30 11:30:46;;;;;;;11.77;9.57;;;;;;;2.11;100.00;99000.28;4959393;29;20203;-37
2021/01/30 11:33:33;;;;;;;12.10;8.33;;;;;;;1.95;100.00;99003.59;4958636;29;20500;-36
2021/01/30 11:36:22;;;;;;;11.60;9.13;;;;;;;2.27;100.00;99013.94;4959133;29;20204;-39
2021/01/30 11:39:08;;;;;;;16.77;11.10;;;;;;;2.72;100.00;99003.88;4959478;29;20203;-37
2021/01/30 11:41:55;;;;;;;11.77;8.30;;;;;;;2.40;100.00;99002.91;4958628;28;20340;-38
2021/01/30 11:44:41;;;;;;;9.93;8.07;;;;;;;2.29;100.00;99005.44;4958985;29;20599;-38
2021/01/30 11:47:27;;;;;;;9.43;7.73;;;;;;;2.64;100.00;99005.56;4958292;29;20608;-40
2021/01/30 11:50:14;;;;;;;11.30;10.00;;;;;;;2.95;100.00;98996.25;4958442;29;20209;-37
2021/01/30 11:53:08;;;;;;;9.77;8.00;;;;;;;2.93;100.00;99003.06;4959109;29;20200;-40
2021/01/30 11:55:55;;;;;;;9.93;7.83;;;;;;;2.83;100.00;98990.25;4958977;29;20212;-41
2021/01/30 11:58:41;;;;;;;13.27;9.60;;;;;;;2.85;100.00;98993.69;4958710;29;20196;-41
2021/01/30 12:01:27;;;;;;;9.13;7.57;;;;;;;2.52;100.00;98999.56;4958566;29;20317;-39
2021/01/30 12:04:13;;;;;;;9.30;7.40;;;;;;;2.74;100.00;99001.34;4958282;29;20680;-39
2021/01/30 12:06:59;;;;;;;10.17;7.67;;;;;;;2.56;100.00;98988.53;4958182;29;20201;-38
2021/01/30 12:09:46;;;;;;;9.47;7.77;;;;;;;2.62;100.00;98983.41;4958716;29;20204;-40
2021/01/30 12:12:32;;;;;;;10.13;8.20;;;;;;;2.83;100.00;98980.06;4958553;29;20200;-38
2021/01/30 12:15:20;;;;;;;9.97;7.33;;;;;;;2.46;100.00;98985.09;4958445;29;20750;-36
2021/01/30 12:18:13;;;;;;;9.57;6.93;;;;;;;2.54;100.00;98988.53;4958148;29;20614;-38
2021/01/30 12:21:00;;;;;;;8.83;6.97;;;;;;;2.50;100.00;98986.81;4957883;29;20207;-40
2021/01/30 12:23:45;;;;;;;8.63;7.03;;;;;;;2.35;100.00;98982.53;4957870;29;20200;-38
2021/01/30 12:26:34;;;;;;;8.70;7.33;;;;;;;2.81;100.00;98980.03;4957948;29;20207;-38
2021/01/30 12:29:20;;;;;;;8.87;7.10;;;;;;;2.98;100.00;98974.97;4956903;29;20391;-39
2021/01/30 12:32:06;;;;;;;9.73;6.50;;;;;;;2.65;100.00;98974.06;4957689;29;20254;-40
2021/01/30 12:34:52;;;;;;;8.97;7.30;;;;;;;2.54;100.00;98972.34;4957847;29;20475;-39
2021/01/30 12:37:38;;;;;;;7.77;6.37;;;;;;;2.88;100.00;98966.44;4957531;28;20328;-40
2021/01/30 12:40:27;;;;;;;7.97;6.90;;;;;;;2.74;100.00;98961.34;4958138;29;20610;-40
2021/01/30 12:43:19;;;;;;;6.93;6.10;;;;;;;2.52;100.00;98961.28;4958113;29;20204;-38
2021/01/30 12:46:06;;;;;;;10.10;5.90;;;;;;;2.53;100.00;98958.75;4957183;29;20203;-39
2021/01/30 12:48:52;;;;;;;6.60;5.57;;;;;;;2.60;100.00;98962.16;4956738;29;20367;-40
2021/01/30 12:51:40;;;;;;;7.87;6.83;;;;;;;2.97;100.00;98953.69;4957540;29;20465;-39
2021/01/30 12:54:28;;;;;;;6.23;5.60;;;;;;;2.69;100.00;98951.97;4956762;29;20205;-40
2021/01/30 12:57:17;;;;;;;5.10;4.43;;;;;;;2.33;100.00;98940.00;4957771;29;20247;-34
2021/01/30 13:00:07;;;;;;;5.77;4.93;;;;;;;2.44;100.00;98940.84;4956369;29;20200;-39
2021/01/30 13:02:53;;;;;;;4.63;4.10;;;;;;;2.31;100.00;98937.44;4956803;29;20557;-38
2021/01/30 13:05:39;;;;;;;5.33;4.67;;;;;;;2.54;100.00;98937.47;4956312;29;20480;-39
2021/01/30 13:08:28;;;;;;;5.20;4.70;;;;;;;2.47;100.00;98945.09;4956368;29;20224;-40
2021/01/30 13:11:16;;;;;;;5.33;4.17;;;;;;;2.20;100.00;98945.91;4957179;28;20254;-38
2021/01/30 13:14:02;;;;;;;5.30;4.77;;;;;;;2.38;100.00;98936.59;4957739;29;20302;-44